Time;durP1;ratioP1;P1;durP2;ratioP2;P2;SDS_P1;SDS_P2;PMS_P1;PMS_P2;Temp;Humidity;BMP_temperature;BMP_pressure;BME280_temperature;BME280_humidity;BME280_pressure;Samples;Min_cycle;Max_cycle;Signal;HPM_P1;HPM_P2
2021/09/23 00:02:35;;;;;;;45.78;23.63;;;12.50;99.90;;;;;;5013331;28;20136;-85
2021/09/23 00:05:03;;;;;;;45.95;25.00;;;12.50;99.90;;;;;;4995401;28;20049;-85
2021/09/23 00:07:30;;;;;;;40.95;22.55;;;12.50;99.90;;;;;;5020710;28;20084;-85
2021/09/23 00:09:57;;;;;;;50.88;24.60;;;12.40;99.90;;;;;;5018639;28;20072;-85
2021/09/23 00:12:23;;;;;;;44.78;24.05;;;12.40;99.90;;;;;;5018330;28;20075;-85
2021/09/23 00:14:50;;;;;;;49.95;26.05;;;12.30;99.90;;;;;;5020271;28;20056;-84
2021/09/23 00:17:17;;;;;;;49.63;25.63;;;12.40;99.90;;;;;;5013751;28;20053;-84
2021/09/23 00:19:44;;;;;;;53.15;24.40;;;12.30;99.90;;;;;;5009841;28;20084;-85
2021/09/23 00:22:10;;;;;;;48.05;25.10;;;12.20;99.90;;;;;;5001063;28;20137;-85
2021/09/23 00:24:37;;;;;;;56.47;26.50;;;12.20;99.90;;;;;;5009901;28;20122;-84
2021/09/23 00:27:04;;;;;;;47.03;26.45;;;12.10;99.90;;;;;;5014945;28;20046;-84
2021/09/23 00:29:31;;;;;;;50.30;26.15;;;12.20;99.90;;;;;;5017814;28;20042;-84
2021/09/23 00:31:58;;;;;;;64.63;29.20;;;12.00;99.90;;;;;;5031461;28;20049;-84
2021/09/23 00:34:24;;;;;;;50.30;27.55;;;12.00;99.90;;;;;;5013681;28;20745;-84
2021/09/23 00:36:51;;;;;;;55.75;27.77;;;12.00;99.90;;;;;;5014829;28;20079;-86
2021/09/23 00:39:21;;;;;;;58.42;29.15;;;12.00;99.90;;;;;;5013122;28;20098;-85
2021/09/23 00:41:48;;;;;;;66.85;29.38;;;11.90;99.90;;;;;;5003933;28;20068;-83
2021/09/23 00:44:19;;;;;;;54.35;28.25;;;11.90;99.90;;;;;;5018012;28;20079;-85
2021/09/23 00:46:48;;;;;;;59.30;28.92;;;11.90;99.90;;;;;;5021861;28;20148;-85
2021/09/23 00:49:18;;;;;;;66.25;30.45;;;11.90;99.90;;;;;;5033360;28;20130;-84
2021/09/23 00:51:45;;;;;;;55.28;29.85;;;11.90;99.90;;;;;;4994667;28;20569;-85
2021/09/23 00:54:12;;;;;;;69.68;31.00;;;11.90;99.90;;;;;;4995086;28;20140;-84
2021/09/23 00:56:39;;;;;;;65.55;30.63;;;11.80;99.90;;;;;;5007704;28;20049;-84
2021/09/23 00:59:06;;;;;;;66.63;32.17;;;11.90;99.90;;;;;;5009543;28;20595;-84
2021/09/23 01:01:32;;;;;;;69.07;30.98;;;11.80;99.90;;;;;;5021951;28;20095;-85
2021/09/23 01:03:59;;;;;;;66.28;31.73;;;11.80;99.90;;;;;;5013519;28;20545;-84
2021/09/23 01:06:26;;;;;;;64.50;32.58;;;11.80;99.90;;;;;;5021336;28;20045;-85
2021/09/23 01:08:58;;;;;;;62.25;32.05;;;11.70;99.90;;;;;;5031420;28;20107;-83
2021/09/23 01:11:28;;;;;;;71.00;32.60;;;11.80;99.90;;;;;;5011150;28;20132;-85
2021/09/23 01:13:56;;;;;;;68.45;32.00;;;11.70;99.90;;;;;;5025235;28;20084;-85
2021/09/23 01:16:23;;;;;;;70.63;34.63;;;11.80;99.90;;;;;;5020574;28;20080;-86
2021/09/23 01:18:50;;;;;;;66.55;33.67;;;11.70;99.90;;;;;;5031178;28;20053;-82
2021/09/23 01:21:17;;;;;;;72.13;33.22;;;11.70;99.90;;;;;;5024988;28;20051;-84
2021/09/23 01:23:45;;;;;;;67.18;33.80;;;11.70;99.90;;;;;;5027421;28;20055;-85
2021/09/23 01:26:18;;;;;;;78.97;36.90;;;11.70;99.90;;;;;;5009642;28;20615;-86
2021/09/23 01:28:45;;;;;;;71.55;34.42;;;11.70;99.90;;;;;;5012573;28;20053;-85
2021/09/23 01:31:12;;;;;;;76.13;37.03;;;11.70;99.90;;;;;;5018005;28;20115;-85
2021/09/23 01:33:39;;;;;;;80.07;36.20;;;11.70;99.90;;;;;;5019139;28;20045;-84
2021/09/23 01:36:05;;;;;;;82.35;36.25;;;11.70;99.90;;;;;;5030578;28;20087;-87
2021/09/23 01:38:32;;;;;;;70.20;35.25;;;11.70;99.90;;;;;;5024340;28;20160;-85
2021/09/23 01:41:01;;;;;;;73.45;35.30;;;11.70;99.90;;;;;;5031695;28;20056;-85
2021/09/23 01:43:28;;;;;;;81.50;37.00;;;11.60;99.90;;;;;;5009080;28;20107;-86
2021/09/23 01:45:55;;;;;;;81.75;37.88;;;11.70;99.90;;;;;;5029535;28;20045;-85
2021/09/23 01:48:21;;;;;;;87.78;39.33;;;11.60;99.90;;;;;;5015943;28;20060;-85
2021/09/23 01:50:49;;;;;;;82.70;38.47;;;11.60;99.90;;;;;;5034713;28;20824;-84
2021/09/23 01:53:15;;;;;;;86.75;37.97;;;11.70;99.90;;;;;;5009098;28;20077;-86
2021/09/23 01:55:48;;;;;;;81.03;39.33;;;11.70;99.90;;;;;;5037467;28;20439;-86
2021/09/23 01:58:15;;;;;;;87.28;40.17;;;11.70;99.90;;;;;;5017068;28;20751;-86
2021/09/23 02:00:42;;;;;;;87.60;40.63;;;11.70;99.90;;;;;;5015816;28;20144;-85
2021/09/23 02:03:10;;;;;;;92.07;41.55;;;11.70;99.90;;;;;;5016392;28;20060;-84
2021/09/23 02:05:37;;;;;;;92.50;40.17;;;11.70;99.90;;;;;;5016455;28;20045;-85
2021/09/23 02:08:04;;;;;;;99.85;40.88;;;11.70;99.90;;;;;;5005076;28;20486;-84
2021/09/23 02:10:31;;;;;;;88.57;41.05;;;11.70;99.90;;;;;;5013337;28;20096;-85
2021/09/23 02:12:58;;;;;;;85.45;41.25;;;11.70;99.90;;;;;;5023956;28;20080;-85
2021/09/23 02:15:25;;;;;;;83.97;40.05;;;11.60;99.90;;;;;;5014998;28;20084;-84
2021/09/23 02:17:52;;;;;;;92.10;39.92;;;11.60;99.90;;;;;;5025048;28;20045;-83
2021/09/23 02:20:19;;;;;;;99.15;41.25;;;11.60;99.90;;;;;;5034389;28;20121;-84
2021/09/23 02:22:46;;;;;;;95.63;42.58;;;11.50;99.90;;;;;;5034611;28;20115;-84
2021/09/23 02:25:13;;;;;;;91.72;42.88;;;11.50;99.90;;;;;;5029721;28;20049;-85
2021/09/23 02:27:41;;;;;;;96.25;42.67;;;11.50;99.90;;;;;;5016212;28;20845;-85
2021/09/23 02:30:09;;;;;;;98.60;44.03;;;11.60;99.90;;;;;;5045946;28;20049;-85
2021/09/23 02:32:36;;;;;;;93.53;42.20;;;11.60;99.90;;;;;;5028640;28;20084;-84
2021/09/23 02:35:04;;;;;;;101.22;43.65;;;11.60;99.90;;;;;;5021740;28;20183;-84
2021/09/23 02:37:31;;;;;;;106.15;44.60;;;11.70;99.90;;;;;;5014703;28;20137;-84
2021/09/23 02:39:58;;;;;;;97.68;43.80;;;11.70;99.90;;;;;;5016030;28;20099;-81
2021/09/23 02:42:25;;;;;;;109.18;44.22;;;11.70;99.90;;;;;;5016263;28;21282;-83
2021/09/23 02:44:52;;;;;;;104.22;44.20;;;11.60;99.90;;;;;;5034824;28;20445;-85
2021/09/23 02:47:23;;;;;;;101.60;43.72;;;11.70;99.90;;;;;;5020198;28;20041;-85
2021/09/23 02:49:50;;;;;;;94.75;43.80;;;11.60;99.90;;;;;;5007398;28;20045;-85
2021/09/23 02:52:18;;;;;;;102.85;44.33;;;11.60;99.90;;;;;;5031645;28;20406;-85
2021/09/23 02:54:47;;;;;;;103.07;44.90;;;11.50;99.90;;;;;;5027936;28;20096;-85
2021/09/23 02:57:14;;;;;;;98.60;44.15;;;11.50;99.90;;;;;;5016518;28;20112;-85
2021/09/23 02:59:44;;;;;;;97.38;42.85;;;11.50;99.90;;;;;;5016402;28;20049;-85
2021/09/23 03:02:11;;;;;;;108.40;47.58;;;11.60;99.90;;;;;;5016714;28;20470;-85
2021/09/23 03:04:38;;;;;;;108.05;46.83;;;11.50;99.90;;;;;;5014515;28;20472;-84
2021/09/23 03:07:06;;;;;;;125.40;47.10;;;11.50;99.90;;;;;;5022090;28;20073;-84
2021/09/23 03:09:33;;;;;;;120.57;47.53;;;11.50;99.90;;;;;;5025008;28;20142;-85
2021/09/23 03:12:00;;;;;;;112.25;48.13;;;11.60;99.90;;;;;;5028884;28;20654;-86
2021/09/23 03:14:27;;;;;;;116.53;49.53;;;11.60;99.90;;;;;;5033103;28;20111;-85
2021/09/23 03:16:54;;;;;;;121.70;47.92;;;11.70;99.90;;;;;;5015162;28;20093;-83
2021/09/23 03:19:21;;;;;;;117.45;49.85;;;11.80;99.90;;;;;;5010472;28;20092;-85
2021/09/23 03:21:48;;;;;;;113.38;49.40;;;11.90;99.90;;;;;;5029341;28;20129;-83
2021/09/23 03:24:16;;;;;;;117.40;49.30;;;11.80;99.90;;;;;;5015935;28;20073;-84
2021/09/23 03:26:43;;;;;;;114.35;49.00;;;11.90;99.90;;;;;;5018768;28;20422;-84
2021/09/23 03:29:10;;;;;;;111.22;49.50;;;11.90;99.90;;;;;;5014896;28;20100;-84
2021/09/23 03:31:38;;;;;;;127.03;49.80;;;11.90;99.90;;;;;;5017968;28;20096;-84
2021/09/23 03:34:05;;;;;;;107.78;48.88;;;11.90;99.90;;;;;;5032689;28;20075;-83
2021/09/23 03:36:32;;;;;;;105.72;46.72;;;11.90;99.90;;;;;;5012044;28;20107;-83
2021/09/23 03:39:00;;;;;;;103.68;47.13;;;11.90;99.90;;;;;;5028572;28;20099;-84
2021/09/23 03:41:26;;;;;;;108.55;48.35;;;11.90;99.90;;;;;;5016351;28;20050;-84
2021/09/23 03:43:56;;;;;;;108.45;47.00;;;11.90;99.90;;;;;;5015355;28;20045;-82
2021/09/23 03:46:23;;;;;;;105.65;46.92;;;11.80;99.90;;;;;;5024672;28;20092;-83
2021/09/23 03:48:50;;;;;;;100.22;47.38;;;11.80;99.90;;;;;;5029570;28;20053;-84
2021/09/23 03:51:17;;;;;;;105.68;47.30;;;11.80;99.90;;;;;;5016705;28;20172;-83
2021/09/23 03:53:44;;;;;;;107.07;45.20;;;11.80;99.90;;;;;;5016158;28;20076;-82
2021/09/23 03:56:14;;;;;;;102.55;46.75;;;11.80;99.90;;;;;;5019753;28;20637;-84
2021/09/23 03:58:49;;;;;;;108.93;45.85;;;11.90;99.90;;;;;;5017337;28;20057;-84
2021/09/23 04:01:16;;;;;;;108.00;45.45;;;11.80;99.90;;;;;;5021951;28;20497;-84
2021/09/23 04:03:43;;;;;;;106.63;45.70;;;11.80;99.90;;;;;;5013780;28;20056;-84
2021/09/23 04:06:10;;;;;;;107.22;45.38;;;11.80;99.90;;;;;;5029748;28;20049;-83
2021/09/23 04:08:37;;;;;;;107.47;46.20;;;11.80;99.90;;;;;;5013420;28;20081;-83
2021/09/23 04:11:04;;;;;;;112.32;47.22;;;11.90;99.90;;;;;;5013036;28;20080;-83
2021/09/23 04:13:31;;;;;;;103.63;45.00;;;11.90;99.90;;;;;;5031220;28;20127;-84
2021/09/23 04:15:58;;;;;;;119.40;47.55;;;11.90;99.90;;;;;;5026804;28;20149;-83
2021/09/23 04:18:27;;;;;;;112.85;46.90;;;11.80;99.90;;;;;;5017675;28;20635;-84
2021/09/23 04:20:54;;;;;;;109.45;48.30;;;11.90;99.90;;;;;;5028333;28;20096;-84
2021/09/23 04:23:21;;;;;;;106.00;45.78;;;11.90;99.90;;;;;;5006559;28;20056;-83
2021/09/23 04:25:47;;;;;;;103.75;46.63;;;11.80;99.90;;;;;;5013738;28;20119;-82
2021/09/23 04:28:14;;;;;;;103.35;45.70;;;11.80;99.90;;;;;;5007779;28;20465;-84
2021/09/23 04:30:41;;;;;;;111.00;46.92;;;11.80;99.90;;;;;;5010234;28;20053;-83
2021/09/23 04:33:08;;;;;;;103.05;45.90;;;11.90;99.90;;;;;;5014052;28;20127;-83
2021/09/23 04:35:35;;;;;;;105.50;45.17;;;11.80;99.90;;;;;;5012234;28;20045;-83
2021/09/23 04:38:02;;;;;;;109.60;45.67;;;11.80;99.90;;;;;;5013799;28;20088;-83
2021/09/23 04:40:29;;;;;;;103.05;45.25;;;11.90;99.90;;;;;;5030705;28;20081;-83
2021/09/23 04:42:55;;;;;;;111.43;46.95;;;11.90;99.90;;;;;;5018542;28;20482;-83
2021/09/23 04:45:22;;;;;;;109.60;45.13;;;11.80;99.90;;;;;;5013608;28;20490;-84
2021/09/23 04:47:51;;;;;;;105.35;45.20;;;11.80;99.90;;;;;;5019646;28;20045;-81
2021/09/23 04:50:18;;;;;;;107.18;46.97;;;11.80;99.90;;;;;;5021653;28;20088;-81
2021/09/23 04:52:45;;;;;;;106.68;45.60;;;11.80;99.90;;;;;;5031526;28;20445;-81
2021/09/23 04:55:12;;;;;;;101.70;45.95;;;11.80;99.90;;;;;;5014426;28;20057;-88
2021/09/23 04:57:39;;;;;;;111.03;45.60;;;11.90;99.90;;;;;;5009433;28;20124;-86
2021/09/23 05:00:07;;;;;;;115.88;47.22;;;11.80;99.90;;;;;;5028380;28;20041;-84
2021/09/23 05:02:34;;;;;;;111.07;45.88;;;11.90;99.90;;;;;;5014524;28;20061;-87
2021/09/23 05:05:01;;;;;;;107.88;46.88;;;11.90;99.90;;;;;;5013054;28;20055;-81
2021/09/23 05:07:28;;;;;;;114.70;46.65;;;11.90;99.90;;;;;;5014355;28;20081;-81
2021/09/23 05:09:54;;;;;;;109.28;44.35;;;11.90;99.90;;;;;;5013153;28;20080;-82
2021/09/23 05:12:22;;;;;;;109.43;45.35;;;11.90;99.90;;;;;;5013008;28;20073;-86
2021/09/23 05:14:50;;;;;;;110.88;45.58;;;12.10;99.90;;;;;;5006196;28;20049;-85
2021/09/23 05:17:17;;;;;;;110.35;43.38;;;11.90;99.90;;;;;;5022403;28;20042;-88
2021/09/23 05:19:44;;;;;;;108.25;45.90;;;11.90;99.90;;;;;;5045427;28;20096;-84
2021/09/23 05:22:11;;;;;;;112.47;45.13;;;11.90;99.90;;;;;;5014221;28;20525;-86
2021/09/23 05:24:38;;;;;;;107.13;45.50;;;11.90;99.90;;;;;;5014540;28;20100;-86
2021/09/23 05:27:05;;;;;;;109.07;44.33;;;11.90;99.90;;;;;;5016924;28;20491;-84
2021/09/23 05:29:32;;;;;;;109.47;44.22;;;12.00;99.90;;;;;;5011241;28;20100;-88
2021/09/23 05:31:59;;;;;;;98.05;42.25;;;12.00;99.90;;;;;;5010297;28;20104;-87
2021/09/23 05:34:26;;;;;;;97.05;44.15;;;12.00;99.90;;;;;;5003787;28;20057;-85
2021/09/23 05:36:52;;;;;;;102.85;44.47;;;12.00;99.90;;;;;;5005385;28;20445;-80
2021/09/23 05:39:20;;;;;;;105.43;42.92;;;12.00;99.90;;;;;;5011944;28;20450;-85
2021/09/23 05:41:49;;;;;;;107.93;42.70;;;12.00;99.90;;;;;;5011488;28;20128;-86
2021/09/23 05:44:23;;;;;;;110.25;44.05;;;12.10;99.90;;;;;;5023657;28;20097;-87
2021/09/23 05:46:51;;;;;;;102.88;43.45;;;12.10;99.90;;;;;;5004305;28;20060;-86
2021/09/23 05:49:19;;;;;;;102.88;41.47;;;12.10;99.90;;;;;;5007974;28;20137;-85
2021/09/23 05:51:47;;;;;;;99.30;41.45;;;12.20;99.90;;;;;;5007747;28;20780;-85
2021/09/23 05:54:14;;;;;;;102.75;41.67;;;12.20;99.90;;;;;;5007775;28;20465;-86
2021/09/23 05:56:44;;;;;;;100.78;43.63;;;12.30;99.90;;;;;;5013717;28;20053;-85
2021/09/23 05:59:14;;;;;;;100.18;40.83;;;12.30;99.90;;;;;;5013636;28;20052;-85
2021/09/23 06:01:44;;;;;;;93.28;41.95;;;12.40;99.90;;;;;;5007798;28;20833;-85
2021/09/23 06:04:11;;;;;;;86.90;39.88;;;12.40;99.90;;;;;;5027290;28;20045;-84
2021/09/23 06:06:39;;;;;;;90.22;39.50;;;12.40;99.90;;;;;;5016233;28;20056;-86
2021/09/23 06:09:06;;;;;;;89.40;41.05;;;12.50;99.90;;;;;;5026818;28;20061;-86
2021/09/23 06:11:35;;;;;;;93.60;39.53;;;12.60;99.90;;;;;;5011329;28;20072;-91
2021/09/23 06:14:02;;;;;;;82.93;38.58;;;12.80;99.90;;;;;;5009975;28;20460;-87
2021/09/23 06:16:30;;;;;;;86.95;39.78;;;12.70;99.90;;;;;;5006441;28;20088;-89
2021/09/23 06:18:56;;;;;;;83.05;38.03;;;12.80;99.90;;;;;;5016867;28;20045;-95
2021/09/23 06:21:23;;;;;;;90.47;37.72;;;13.00;99.90;;;;;;5015673;28;20048;-92
2021/09/23 06:23:50;;;;;;;85.18;37.38;;;13.00;99.90;;;;;;5010776;28;20115;-89
2021/09/23 06:26:19;;;;;;;85.13;37.40;;;13.00;99.90;;;;;;5013530;28;20080;-92
2021/09/23 06:28:46;;;;;;;81.18;36.45;;;13.00;99.90;;;;;;5013205;28;20135;-88
2021/09/23 06:31:13;;;;;;;76.50;35.22;;;13.00;99.90;;;;;;5014220;28;20053;-83
2021/09/23 06:33:44;;;;;;;74.47;34.30;;;13.00;99.90;;;;;;5014759;28;20406;-86
2021/09/23 06:36:11;;;;;;;83.68;34.47;;;13.10;99.90;;;;;;5033106;28;20089;-85
2021/09/23 06:38:38;;;;;;;74.25;33.15;;;13.00;99.90;;;;;;5014754;28;20061;-84
2021/09/23 06:41:05;;;;;;;69.43;34.55;;;13.00;99.90;;;;;;5032083;28;20045;-86
2021/09/23 06:43:32;;;;;;;69.68;32.33;;;13.10;99.90;;;;;;5011211;28;20075;-84
2021/09/23 06:45:59;;;;;;;78.05;34.65;;;13.10;99.90;;;;;;5014114;28;20057;-86
2021/09/23 06:48:25;;;;;;;74.03;33.70;;;13.20;99.90;;;;;;5012951;28;20084;-84
2021/09/23 06:50:52;;;;;;;76.03;33.28;;;13.20;99.90;;;;;;5006393;28;20538;-84
2021/09/23 06:53:19;;;;;;;74.65;32.03;;;13.20;99.90;;;;;;5004921;28;20076;-87
2021/09/23 06:55:46;;;;;;;73.97;32.47;;;13.30;99.90;;;;;;5011237;28;20080;-84
2021/09/23 06:58:12;;;;;;;66.70;31.15;;;13.20;99.90;;;;;;5014059;28;20124;-85
2021/09/23 07:00:40;;;;;;;73.60;32.08;;;13.20;99.90;;;;;;5007535;28;20049;-84
2021/09/23 07:03:07;;;;;;;81.43;32.97;;;13.30;99.90;;;;;;5018303;28;20138;-85
2021/09/23 07:05:35;;;;;;;73.65;34.08;;;13.30;99.90;;;;;;5014284;28;20078;-85
2021/09/23 07:08:01;;;;;;;66.07;31.55;;;13.30;99.90;;;;;;5021850;28;20076;-85
2021/09/23 07:10:28;;;;;;;77.47;32.13;;;13.30;99.90;;;;;;5009770;28;20061;-84
2021/09/23 07:12:55;;;;;;;72.30;31.55;;;13.40;99.90;;;;;;5014910;28;20042;-85
2021/09/23 07:15:22;;;;;;;69.07;32.58;;;13.50;99.90;;;;;;5012663;28;20079;-85
2021/09/23 07:17:49;;;;;;;65.50;30.83;;;13.50;99.90;;;;;;5013382;28;20065;-85
2021/09/23 07:20:15;;;;;;;69.65;31.35;;;13.50;99.90;;;;;;5012097;28;20081;-82
2021/09/23 07:22:42;;;;;;;69.55;30.27;;;13.50;99.90;;;;;;5017751;28;20041;-84
2021/09/23 07:25:09;;;;;;;64.68;30.52;;;13.60;99.90;;;;;;5032040;28;20552;-84
2021/09/23 07:27:36;;;;;;;67.85;29.45;;;13.40;99.90;;;;;;5012875;28;20052;-85
2021/09/23 07:30:04;;;;;;;74.70;31.45;;;13.40;99.90;;;;;;5028803;28;20732;-81
2021/09/23 07:32:31;;;;;;;69.45;30.40;;;13.50;99.90;;;;;;5007307;28;20097;-86
2021/09/23 07:34:57;;;;;;;66.35;29.98;;;13.50;99.90;;;;;;5006954;28;20754;-85
2021/09/23 07:37:25;;;;;;;72.00;29.73;;;13.50;99.90;;;;;;5021977;28;20506;-85
2021/09/23 07:39:54;;;;;;;68.13;30.33;;;13.60;99.90;;;;;;5000806;28;20085;-87
2021/09/23 07:42:22;;;;;;;62.90;29.42;;;13.70;99.90;;;;;;5009925;28;20045;-84
2021/09/23 07:44:51;;;;;;;65.28;29.05;;;13.80;99.90;;;;;;5010174;28;20489;-85
2021/09/23 07:47:18;;;;;;;63.30;28.40;;;13.80;99.90;;;;;;5022630;28;20733;-85
2021/09/23 07:49:45;;;;;;;66.78;28.42;;;14.10;99.90;;;;;;5030411;28;20585;-86
2021/09/23 07:52:11;;;;;;;57.13;27.92;;;14.00;99.90;;;;;;5015913;28;20085;-86
2021/09/23 07:54:38;;;;;;;63.63;29.42;;;14.10;99.90;;;;;;5030716;28;20603;-86
2021/09/23 07:57:05;;;;;;;61.67;27.67;;;14.10;99.90;;;;;;5011431;28;20111;-86
2021/09/23 07:59:37;;;;;;;65.85;29.30;;;14.30;99.90;;;;;;5013911;28;20073;-86
2021/09/23 08:02:04;;;;;;;54.47;27.08;;;14.50;99.90;;;;;;5016269;28;20128;-86
2021/09/23 08:04:31;;;;;;;60.10;26.88;;;14.60;99.90;;;;;;5016606;28;20053;-86
2021/09/23 08:06:58;;;;;;;53.75;26.73;;;14.50;99.90;;;;;;5015664;28;20056;-85
2021/09/23 08:09:25;;;;;;;57.83;26.20;;;14.50;99.90;;;;;;5011246;28;20557;-86
2021/09/23 08:11:51;;;;;;;53.33;24.90;;;14.60;99.90;;;;;;5005358;28;20081;-86
2021/09/23 08:14:18;;;;;;;57.67;25.85;;;14.70;99.90;;;;;;5008532;28;20149;-86
2021/09/23 08:16:45;;;;;;;57.15;25.05;;;14.80;99.90;;;;;;5012185;28;20490;-86
2021/09/23 08:19:12;;;;;;;54.75;25.33;;;15.00;99.90;;;;;;5006848;28;20197;-86
2021/09/23 08:21:39;;;;;;;56.85;26.30;;;14.80;99.90;;;;;;5007680;28;20060;-86
2021/09/23 08:24:06;;;;;;;51.67;25.48;;;15.00;99.90;;;;;;5006459;28;20151;-81
2021/09/23 08:26:33;;;;;;;57.28;24.63;;;14.80;99.90;;;;;;5025664;28;20490;-87
2021/09/23 08:29:00;;;;;;;46.92;22.58;;;14.90;99.90;;;;;;5006227;28;20134;-86
2021/09/23 08:31:27;;;;;;;57.63;23.48;;;14.90;99.90;;;;;;5012573;28;20072;-86
2021/09/23 08:33:54;;;;;;;48.83;23.80;;;14.90;99.90;;;;;;5025352;28;20049;-88
2021/09/23 08:36:21;;;;;;;56.78;23.75;;;15.00;99.90;;;;;;5009126;28;20052;-87
2021/09/23 08:38:50;;;;;;;50.40;22.98;;;15.10;99.90;;;;;;5020992;28;20116;-87
2021/09/23 08:41:17;;;;;;;52.83;23.88;;;15.30;99.90;;;;;;5009934;28;20648;-87
2021/09/23 08:43:44;;;;;;;49.78;23.08;;;15.60;99.90;;;;;;5024379;28;20053;-87
2021/09/23 08:46:11;;;;;;;44.67;20.67;;;15.70;99.90;;;;;;5012140;28;20073;-87
2021/09/23 08:48:38;;;;;;;44.63;22.42;;;15.90;99.90;;;;;;5022262;28;20053;-87
2021/09/23 08:51:05;;;;;;;49.67;22.45;;;15.70;99.90;;;;;;5008460;28;20077;-88
2021/09/23 08:53:32;;;;;;;49.33;22.23;;;15.50;99.90;;;;;;5005008;28;20478;-87
2021/09/23 08:55:59;;;;;;;45.70;21.58;;;15.70;99.90;;;;;;5008052;28;20671;-86
2021/09/23 08:58:26;;;;;;;45.97;21.85;;;15.80;99.90;;;;;;5008288;28;20383;-88
2021/09/23 09:01:10;;;;;;;53.30;25.60;;;16.00;99.90;;;;;;5006487;28;20049;-87
2021/09/23 09:03:37;;;;;;;41.80;22.75;;;16.10;99.90;;;;;;5008094;28;20060;-88
2021/09/23 09:06:14;;;;;;;44.72;24.38;;;16.10;99.90;;;;;;5011127;28;20045;-87
2021/09/23 09:08:42;;;;;;;54.08;26.00;;;16.00;99.90;;;;;;5004149;28;20092;-88
2021/09/23 09:11:12;;;;;;;49.00;25.02;;;15.90;99.90;;;;;;5013766;28;20127;-88
2021/09/23 09:13:41;;;;;;;63.03;30.65;;;15.80;99.90;;;;;;5028844;28;20056;-87
2021/09/23 09:16:27;;;;;;;57.28;24.17;;;15.60;99.90;;;;;;5015205;28;20057;-87
2021/09/23 09:18:58;;;;;;;63.67;30.42;;;15.60;99.90;;;;;;5025080;28;20049;-89
2021/09/23 09:21:27;;;;;;;55.95;27.48;;;15.50;99.90;;;;;;5004829;28;20099;-83
2021/09/23 09:23:58;;;;;;;48.60;26.15;;;15.50;99.90;;;;;;5009787;28;20104;-82
2021/09/23 09:26:41;;;;;;;62.05;32.53;;;15.50;99.90;;;;;;5012026;28;20283;-85
2021/09/23 09:29:11;;;;;;;64.70;31.90;;;15.50;99.90;;;;;;5009401;28;20072;-82
2021/09/23 09:31:48;;;;;;;57.97;27.45;;;15.60;99.90;;;;;;5024803;28;20084;-82
2021/09/23 09:34:19;;;;;;;49.70;23.02;;;15.80;99.90;;;;;;5012142;28;20061;-81
2021/09/23 09:36:49;;;;;;;50.85;20.08;;;15.80;99.90;;;;;;5021740;28;20130;-84
2021/09/23 09:39:20;;;;;;;50.17;21.23;;;16.10;99.90;;;;;;5013620;28;20115;-82
2021/09/23 09:41:52;;;;;;;39.53;20.23;;;16.20;99.90;;;;;;5014309;28;20194;-81
2021/09/23 09:44:20;;;;;;;39.17;20.02;;;16.20;99.90;;;;;;5003420;28;20053;-78
2021/09/23 09:46:53;;;;;;;39.65;18.85;;;16.10;99.90;;;;;;5009421;28;20091;-82
2021/09/23 09:49:23;;;;;;;37.15;18.98;;;16.00;99.90;;;;;;5029901;28;20600;-82
2021/09/23 09:51:58;;;;;;;33.72;17.63;;;16.00;99.90;;;;;;5026939;28;20049;-82
2021/09/23 09:54:25;;;;;;;;;;;16.10;99.90;;;;;;5011658;28;20049;-81
2021/09/23 09:57:01;;;;;;;40.47;17.95;;;16.10;99.90;;;;;;5012040;28;20350;-82
2021/09/23 09:59:31;;;;;;;42.65;18.92;;;15.90;99.90;;;;;;5028768;28;20376;-83
2021/09/23 10:02:02;;;;;;;38.90;17.42;;;15.90;99.90;;;;;;5011251;28;20045;-83
2021/09/23 10:04:36;;;;;;;32.60;16.70;;;16.00;99.90;;;;;;5027537;28;20109;-84
2021/09/23 10:07:12;;;;;;;40.92;18.05;;;15.90;99.90;;;;;;5012682;28;20068;-83
2021/09/23 10:09:44;;;;;;;37.80;18.77;;;15.80;99.90;;;;;;5028317;28;20076;-81
2021/09/23 10:12:11;;;;;;;37.45;17.08;;;15.80;99.90;;;;;;5029322;28;20061;-77
2021/09/23 10:14:42;;;;;;;39.55;18.92;;;15.80;99.90;;;;;;5029710;28;20057;-85
2021/09/23 10:17:10;;;;;;;33.60;17.23;;;15.70;99.90;;;;;;5029865;28;20053;-85
2021/09/23 10:19:43;;;;;;;38.28;17.95;;;16.00;99.90;;;;;;5014841;28;20131;-84
2021/09/23 10:22:12;;;;;;;39.05;18.23;;;15.90;99.90;;;;;;5011204;28;20045;-80
2021/09/23 10:24:41;;;;;;;32.78;17.02;;;15.80;99.90;;;;;;5011248;28;20084;-81
2021/09/23 10:29:57;;;;;;;34.03;16.02;;;15.70;99.90;;;;;;5026496;28;20081;-81
2021/09/23 10:32:25;;;;;;;39.53;18.85;;;15.50;99.90;;;;;;5007982;28;20089;-81
2021/09/23 10:34:52;;;;;;;44.20;18.50;;;15.40;99.90;;;;;;5026748;28;20088;-81
2021/09/23 10:37:22;;;;;;;39.15;17.35;;;15.40;99.90;;;;;;5023258;28;20053;-82
2021/09/23 10:39:53;;;;;;;45.67;18.85;;;15.50;99.90;;;;;;5001025;28;20046;-80
2021/09/23 10:42:21;;;;;;;36.22;17.65;;;15.40;99.90;;;;;;5019996;28;20069;-82
2021/09/23 10:44:51;;;;;;;38.83;17.80;;;15.40;99.90;;;;;;5000397;28;20115;-81
2021/09/23 10:47:28;;;;;;;36.78;17.08;;;15.50;99.90;;;;;;5007080;28;20125;-81
2021/09/23 10:49:57;;;;;;;38.40;17.83;;;15.50;99.90;;;;;;5022226;28;20084;-81
2021/09/23 10:52:31;;;;;;;35.88;17.48;;;15.70;99.90;;;;;;5024688;28;20077;-80
2021/09/23 10:55:03;;;;;;;42.88;17.15;;;15.50;99.90;;;;;;5007821;28;20125;-80
2021/09/23 10:57:32;;;;;;;33.67;16.50;;;15.60;99.90;;;;;;5007224;28;20065;-81
2021/09/23 11:00:09;;;;;;;36.22;17.50;;;15.60;99.90;;;;;;5006955;28;20084;-81
2021/09/23 11:02:36;;;;;;;34.05;16.33;;;15.60;99.90;;;;;;5003873;28;20116;-81
2021/09/23 11:05:11;;;;;;;29.70;16.80;;;15.60;99.90;;;;;;5011741;28;20080;-80
2021/09/23 11:07:42;;;;;;;34.58;16.98;;;15.60;99.90;;;;;;5011449;28;20045;-80
2021/09/23 11:10:18;;;;;;;36.67;17.25;;;15.60;99.90;;;;;;5013005;28;20200;-81
2021/09/23 11:12:48;;;;;;;41.03;15.90;;;15.70;99.90;;;;;;5028994;28;20087;-80
2021/09/23 11:15:18;;;;;;;37.22;17.10;;;15.80;99.90;;;;;;5010100;28;20140;-81
2021/09/23 11:17:46;;;;;;;39.72;16.25;;;15.70;99.90;;;;;;5001839;28;20080;-79
2021/09/23 11:20:24;;;;;;;32.55;15.18;;;15.70;99.90;;;;;;4999039;28;20132;-78
2021/09/23 11:22:55;;;;;;;33.65;17.13;;;15.70;99.90;;;;;;5022653;28;20073;-79
2021/09/23 11:25:24;;;;;;;38.08;17.60;;;15.70;99.90;;;;;;5007986;28;20049;-80
2021/09/23 11:27:53;;;;;;;33.25;16.35;;;15.70;99.90;;;;;;5031864;28;20100;-81
2021/09/23 11:30:22;;;;;;;40.38;14.75;;;15.70;99.90;;;;;;5013040;28;20089;-80
2021/09/23 11:32:58;;;;;;;37.72;17.13;;;15.70;99.90;;;;;;5012823;28;20095;-81
2021/09/23 11:35:28;;;;;;;;;;;15.70;99.90;;;;;;5031519;28;20053;-81
2021/09/23 11:37:57;;;;;;;27.40;15.23;;;15.70;99.90;;;;;;5025155;28;19968;-79
2021/09/23 11:40:44;;;;;;;30.33;15.15;;;15.80;99.90;;;;;;5025456;28;20045;-78
2021/09/23 11:43:14;;;;;;;29.35;15.02;;;15.70;99.90;;;;;;5004628;28;20645;-82
2021/09/23 11:45:49;;;;;;;31.85;15.10;;;15.70;99.90;;;;;;5013024;28;20136;-83
2021/09/23 11:48:19;;;;;;;29.65;15.48;;;15.70;99.90;;;;;;5026997;28;20119;-79
2021/09/23 11:50:50;;;;;;;34.80;14.95;;;15.70;99.90;;;;;;5024292;28;20151;-81
2021/09/23 11:53:23;;;;;;;35.03;15.30;;;15.80;99.90;;;;;;5010535;28;20053;-80
2021/09/23 11:56:08;;;;;;;33.08;15.60;;;15.70;99.90;;;;;;5029697;28;20049;-78
2021/09/23 11:58:41;;;;;;;26.52;13.57;;;15.70;99.90;;;;;;5028496;28;20046;-80
2021/09/23 12:01:07;;;;;;;30.27;15.23;;;15.80;99.90;;;;;;5007920;28;20126;-80
2021/09/23 12:03:42;;;;;;;27.83;14.57;;;15.90;99.90;;;;;;5025570;28;20133;-79
2021/09/23 12:06:12;;;;;;;24.30;13.98;;;15.90;99.90;;;;;;5013317;28;20536;-81
2021/09/23 12:08:40;;;;;;;28.67;14.60;;;15.90;99.90;;;;;;5028313;28;20499;-79
2021/09/23 12:11:11;;;;;;;27.50;14.20;;;16.00;99.90;;;;;;5012926;28;20068;-80
2021/09/23 12:13:46;;;;;;;28.13;14.05;;;16.10;99.90;;;;;;5020733;28;20080;-79
2021/09/23 12:16:29;;;;;;;27.42;13.32;;;16.10;99.90;;;;;;5011862;28;20045;-80
2021/09/23 12:19:03;;;;;;;24.40;14.32;;;16.00;99.90;;;;;;5012658;28;20120;-83
2021/09/23 12:21:33;;;;;;;29.63;14.07;;;16.00;99.90;;;;;;5010188;28;20087;-84
2021/09/23 12:24:03;;;;;;;28.33;14.73;;;16.00;99.90;;;;;;5014967;28;20099;-85
2021/09/23 12:26:43;;;;;;;28.70;14.23;;;16.10;99.90;;;;;;5019855;28;20053;-83
2021/09/23 12:29:20;;;;;;;103.55;19.90;;;16.20;99.90;;;;;;5004677;28;20135;-83
2021/09/23 12:32:02;;;;;;;37.10;14.23;;;16.20;99.90;;;;;;5005897;28;20073;-84
2021/09/23 12:34:30;;;;;;;26.95;13.88;;;16.20;99.90;;;;;;5005070;28;20140;-84
2021/09/23 12:37:05;;;;;;;29.35;13.13;;;16.20;99.90;;;;;;5020424;28;20077;-86